This is the latest recevied weather packets stored in our database for station/object DL2RXE-13. If no packets are shown the sender has not sent any weather packets the latest 10 day(s).
| Time | Temp. | Humidity | Pressure | Rain* | Wind** | Luminosity | Snow |
|---|---|---|---|---|---|---|---|
| 1777594263 | 5° C | 84% | 1029.2 hPa | 0 mm | - | 0 W/m² | - |
| 1777593042 | 4.44° C | 89% | 1029.2 hPa | 0 mm | - | 0 W/m² | - |
| 1777588271 | 6.11° C | 83% | 1029.4 hPa | 0 mm | - | 0 W/m² | - |
| 1777582246 | 7.22° C | 78% | 1029.4 hPa | 0 mm | - | 0 W/m² | - |
| 1777576828 | 10° C | 68% | 1029.3 hPa | 0 mm | - | 0 W/m² | - |
| 1777576248 | 11.67° C | 64% | 1029.2 hPa | 0 mm | - | 0 W/m² | - |
| 1777572030 | 16.11° C | 47% | 1029 hPa | 0 mm | - | 14 W/m² | - |
| 1777570828 | 17.22° C | 43% | 1029.2 hPa | 0 mm | - | 30 W/m² | - |
| 1777569669 | 17.78° C | 42% | 1029.2 hPa | 0 mm | - | 49 W/m² | - |
| 1777569029 | 17.78° C | 42% | 1029.3 hPa | 0 mm | - | 63 W/m² | - |
| 1777568429 | 17.78° C | 42% | 1029.2 hPa | 0 mm | - | 88 W/m² | - |
| 1777560629 | 17.78° C | 40% | 1029.9 hPa | 0 mm | - | 402 W/m² | - |
| 1777559429 | 18.33° C | 38% | 1030.1 hPa | 0 mm | - | 444 W/m² | - |
| 1777557029 | 17.78° C | 40% | 1030.1 hPa | 0 mm | - | 512 W/m² | - |
| 1777554030 | 17.78° C | 39% | 1030.5 hPa | 0 mm | - | 490 W/m² | - |
| 1777550450 | 16.67° C | 39% | 1031.1 hPa | 0 mm | - | 603 W/m² | - |
| 1777545029 | 15° C | 40% | 1032.1 hPa | 0 mm | - | 509 W/m² | - |
| 1777543850 | 14.44° C | 40% | 1032.3 hPa | 0 mm | - | 572 W/m² | - |
| 1777540229 | 13.89° C | 37% | 1032.5 hPa | 0 mm | - | 573 W/m² | - |
| 1777534244 | 11.67° C | 38% | 1032.8 hPa | 0 mm | - | 325 W/m² | - |
| 1777533047 | 11.11° C | 41% | 1033 hPa | 0 mm | - | 298 W/m² | - |
| 1777532450 | 11.11° C | 41% | 1033 hPa | 0 mm | - | 246 W/m² | - |
| 1777528848 | 7.22° C | 62% | 1032.8 hPa | 0 mm | - | 130 W/m² | - |
| 1777527647 | 6.11° C | 70% | 1032.7 hPa | 0 mm | - | 108 W/m² | - |
| 1777527051 | 5° C | 72% | 1032.7 hPa | 0 mm | - | 74 W/m² | - |
* Rain latest hour (hover to see other rain measurements)
** Current wind speed in m/s (hover to see current wind gust speed)